createdAt,value
2019-01-09T00:00:20.628Z,1.7
2019-01-09T00:03:21.098Z,1.8
2019-01-09T00:06:20.690Z,1.7
2019-01-09T00:09:20.805Z,1.6
2019-01-09T00:12:21.615Z,1.7
2019-01-09T00:15:20.830Z,1.7
2019-01-09T00:18:21.649Z,1.6
2019-01-09T00:21:21.199Z,1.6
2019-01-09T00:24:20.878Z,1.7
2019-01-09T00:27:20.976Z,1.9
2019-01-09T00:30:20.616Z,1.7
2019-01-09T00:33:20.910Z,1.5
2019-01-09T00:36:21.132Z,1.8
2019-01-09T00:39:20.936Z,1.6
2019-01-09T00:42:20.685Z,1.6
2019-01-09T00:45:21.105Z,1.5
2019-01-09T00:48:20.978Z,1.4
2019-01-09T00:51:21.142Z,1.6
2019-01-09T00:54:20.811Z,1.8
2019-01-09T00:57:20.739Z,1.6
2019-01-09T01:00:20.985Z,1.5
2019-01-09T01:03:20.857Z,1.6
2019-01-09T01:06:20.760Z,1.5
2019-01-09T01:09:20.834Z,1.4
2019-01-09T01:12:20.778Z,1.4
2019-01-09T01:15:20.777Z,1.3
2019-01-09T01:18:20.456Z,1.3
2019-01-09T01:21:20.890Z,1.4
2019-01-09T01:24:20.698Z,1.5
2019-01-09T01:27:21.100Z,1.5
2019-01-09T01:30:21.530Z,1.4
2019-01-09T01:33:21.597Z,1.4
2019-01-09T01:36:21.084Z,1.3
2019-01-09T01:39:21.084Z,1.4
2019-01-09T01:42:21.104Z,1.4
2019-01-09T01:45:21.032Z,1.4
2019-01-09T01:48:20.783Z,1.4
2019-01-09T01:51:21.035Z,1.4
2019-01-09T01:54:21.106Z,1.3
2019-01-09T01:57:20.778Z,1.3
2019-01-09T02:00:21.026Z,1.3
2019-01-09T02:03:20.976Z,1.7
2019-01-09T02:06:21.290Z,1.5
2019-01-09T02:09:20.927Z,1.4
2019-01-09T02:12:20.868Z,1.3
2019-01-09T02:15:21.000Z,1.3
2019-01-09T02:18:21.267Z,1.3
2019-01-09T02:21:21.243Z,1.3
2019-01-09T02:24:20.740Z,1.3
2019-01-09T02:27:20.696Z,1.4
2019-01-09T02:30:20.788Z,1.4
2019-01-09T02:33:20.719Z,1.5
2019-01-09T02:36:20.679Z,1.4
2019-01-09T02:39:20.786Z,1.3
2019-01-09T02:42:20.841Z,1.2
2019-01-09T02:45:20.802Z,1.3
2019-01-09T02:48:20.805Z,1.4
2019-01-09T02:51:20.622Z,1.5
2019-01-09T02:54:21.141Z,1.4
2019-01-09T02:57:21.644Z,1.3
2019-01-09T03:00:21.198Z,1.3
2019-01-09T03:03:21.254Z,1.2
2019-01-09T03:06:23.817Z,1.3
2019-01-09T03:09:20.525Z,1.3
2019-01-09T03:12:21.470Z,1.3
2019-01-09T03:15:21.479Z,1.3
2019-01-09T03:18:21.159Z,1.2
2019-01-09T03:21:22.916Z,1.3
2019-01-09T03:24:20.807Z,1.3
2019-01-09T03:27:20.752Z,1.2
2019-01-09T03:30:20.605Z,1.3
2019-01-09T03:33:20.678Z,1.4
2019-01-09T03:36:21.224Z,1.5
2019-01-09T03:39:21.002Z,1.4
2019-01-09T03:42:21.056Z,1.4
2019-01-09T03:45:20.836Z,1.6
2019-01-09T03:48:20.687Z,1.5
2019-01-09T03:51:20.839Z,1.5
2019-01-09T03:54:21.482Z,1.4
2019-01-09T03:57:20.703Z,1.3
2019-01-09T04:00:20.619Z,1.3
2019-01-09T04:03:21.000Z,1.3
2019-01-09T04:06:21.185Z,1.3
2019-01-09T04:09:20.910Z,1.2
2019-01-09T04:12:20.794Z,1.3
2019-01-09T04:15:20.828Z,1.2
2019-01-09T04:18:20.568Z,1.2
2019-01-09T04:21:20.815Z,1.4
2019-01-09T04:24:20.815Z,1.3
2019-01-09T04:27:20.982Z,1.3
2019-01-09T04:30:20.895Z,1.3
2019-01-09T04:33:20.907Z,1.3
2019-01-09T04:36:20.581Z,1.3
2019-01-09T04:39:21.554Z,1.2
2019-01-09T04:42:20.502Z,1.3
2019-01-09T04:45:20.962Z,1.3
2019-01-09T04:48:21.141Z,1.2
2019-01-09T04:51:21.004Z,1.2
2019-01-09T04:54:20.508Z,1.4
2019-01-09T04:57:20.590Z,1.3
2019-01-09T05:00:21.332Z,1.4
2019-01-09T05:03:20.758Z,1.3
2019-01-09T05:06:21.041Z,1.2
2019-01-09T05:09:21.135Z,1.1
2019-01-09T05:12:21.120Z,1.2
2019-01-09T05:15:20.596Z,1.2
2019-01-09T05:18:20.990Z,1.3
2019-01-09T05:21:21.077Z,1.1
2019-01-09T05:24:20.940Z,1.1
2019-01-09T05:27:21.060Z,1.1
2019-01-09T05:30:20.741Z,1.1
2019-01-09T05:33:21.254Z,1.1
2019-01-09T05:36:20.531Z,1
2019-01-09T05:39:20.737Z,1.2
2019-01-09T05:42:20.966Z,1.2
2019-01-09T05:45:21.008Z,1.2
2019-01-09T05:48:20.860Z,1.2
2019-01-09T05:51:20.880Z,1.3
2019-01-09T05:54:20.580Z,1.3
2019-01-09T05:57:21.152Z,1.3
2019-01-09T06:00:20.780Z,1.2
2019-01-09T06:03:20.808Z,1.1
2019-01-09T06:06:20.919Z,1.1
2019-01-09T06:09:21.073Z,1.2
2019-01-09T06:12:20.537Z,1.2
2019-01-09T06:15:20.464Z,1.3
2019-01-09T06:18:20.640Z,1.2
2019-01-09T06:21:20.488Z,1.3
2019-01-09T06:24:20.608Z,1.2
2019-01-09T06:27:21.130Z,1.2
2019-01-09T06:30:20.458Z,1.1
2019-01-09T06:33:20.990Z,1.1
2019-01-09T06:36:21.377Z,1.2
2019-01-09T06:39:21.616Z,1.3
2019-01-09T06:42:20.894Z,1.3
2019-01-09T06:45:20.834Z,1.2
2019-01-09T06:48:20.943Z,1.1
2019-01-09T06:51:21.544Z,1.5
2019-01-09T06:54:21.254Z,1.6
2019-01-09T06:57:20.805Z,1.4
2019-01-09T07:00:20.373Z,1.3
2019-01-09T07:03:20.457Z,1.2
2019-01-09T07:06:20.780Z,1.1
2019-01-09T07:09:20.973Z,1.1
2019-01-09T07:12:20.820Z,2.5
2019-01-09T07:15:20.950Z,3.4
2019-01-09T07:18:20.503Z,3.3
2019-01-09T07:21:20.854Z,3.9
2019-01-09T07:24:20.579Z,3.3
2019-01-09T07:27:20.981Z,4.1
2019-01-09T07:30:20.787Z,3.2
2019-01-09T07:33:20.760Z,3
2019-01-09T07:36:20.735Z,2.4
2019-01-09T07:39:20.587Z,2.4
2019-01-09T07:42:20.808Z,3
2019-01-09T07:45:20.444Z,2.6
2019-01-09T07:48:20.579Z,3.4
2019-01-09T07:51:20.604Z,2.5
2019-01-09T07:54:21.195Z,2.3
2019-01-09T07:57:21.132Z,2.5
2019-01-09T08:00:21.281Z,2
2019-01-09T08:03:20.836Z,1.8
2019-01-09T08:06:20.768Z,1.9
2019-01-09T08:09:20.496Z,2.1
2019-01-09T08:12:21.243Z,1.9
2019-01-09T08:15:20.854Z,1.7
2019-01-09T08:18:20.726Z,1.7
2019-01-09T08:21:21.486Z,1.7
2019-01-09T08:24:20.891Z,1.9
2019-01-09T08:27:20.977Z,1.8
2019-01-09T08:30:20.975Z,1.9
2019-01-09T08:33:20.748Z,1.7
2019-01-09T08:36:21.400Z,1.5
2019-01-09T08:39:23.120Z,2.7
2019-01-09T08:42:20.699Z,2.4
2019-01-09T08:45:20.990Z,2.1
2019-01-09T08:48:21.204Z,1.9
2019-01-09T08:51:21.032Z,1.5
2019-01-09T08:54:20.996Z,1.5
2019-01-09T08:57:21.341Z,1.9
2019-01-09T09:00:20.367Z,1.9
2019-01-09T09:03:20.770Z,2.4
2019-01-09T09:06:20.572Z,2.2
2019-01-09T09:09:20.468Z,1.8
2019-01-09T09:12:20.383Z,2.3
2019-01-09T09:15:20.784Z,2.2
2019-01-09T09:18:20.768Z,2
2019-01-09T09:21:20.441Z,1.8
2019-01-09T09:24:20.328Z,1.7
2019-01-09T09:27:20.386Z,1.6
2019-01-09T09:30:20.464Z,1.8
2019-01-09T09:37:12.776Z,2.6
2019-01-09T09:40:12.932Z,2.2
2019-01-09T09:43:12.877Z,2.2
2019-01-09T09:46:12.588Z,1.9
2019-01-09T09:49:13.095Z,1.6
2019-01-09T09:52:12.813Z,1.8
2019-01-09T09:55:13.698Z,1.6
2019-01-09T09:58:12.793Z,1.5
2019-01-09T10:01:12.977Z,1.8
2019-01-09T10:04:13.019Z,1.9
2019-01-09T10:07:12.748Z,1.6
2019-01-09T10:10:13.122Z,1.5
2019-01-09T10:13:13.105Z,1.8
2019-01-09T10:16:12.506Z,1.9
2019-01-09T10:19:12.461Z,1.6
2019-01-09T10:22:13.128Z,2.1
2019-01-09T10:25:13.059Z,2
2019-01-09T10:28:12.862Z,2.7
2019-01-09T10:39:13.576Z,1.6
2019-01-09T10:42:14.002Z,1.6
2019-01-09T10:49:46.350Z,3.4
2019-01-09T10:52:46.290Z,3.5
2019-01-09T10:55:46.417Z,2.4
2019-01-09T11:03:28.978Z,1.7
2019-01-09T11:09:54.971Z,2.2
2019-01-09T11:12:55.492Z,2
2019-01-09T11:19:30.391Z,4.6
2019-01-09T11:22:29.694Z,4.7
2019-01-09T11:25:30.081Z,3.7
2019-01-09T11:28:30.262Z,3.2
2019-01-09T11:31:30.329Z,2.6
2019-01-09T11:34:29.979Z,2.6
2019-01-09T11:37:30.518Z,3.5
2019-01-09T11:40:30.385Z,2.7
2019-01-09T11:43:30.437Z,2.4
2019-01-09T11:46:29.925Z,2.4
2019-01-09T11:49:31.158Z,2.2
2019-01-09T12:52:49.034Z,1.7
2019-01-09T12:55:49.261Z,1.6
2019-01-09T13:06:43.359Z,2
2019-01-09T13:09:43.915Z,2
2019-01-09T13:12:43.362Z,2.3
2019-01-09T13:15:43.255Z,2
2019-01-09T13:18:43.340Z,1.8
2019-01-09T13:21:43.745Z,2.2
2019-01-09T13:24:43.285Z,2.1
2019-01-09T13:27:44.026Z,2.2
2019-01-09T13:32:58.486Z,1.5
2019-01-09T13:39:31.340Z,4.3
2019-01-09T13:46:34.699Z,2
2019-01-09T13:49:34.635Z,3.3
2019-01-09T13:52:35.659Z,3
2019-01-09T13:55:34.797Z,3
2019-01-09T13:58:34.715Z,2.6
2019-01-09T14:01:34.754Z,3
2019-01-09T14:04:34.794Z,2.6
2019-01-09T14:07:35.546Z,2.1
2019-01-09T14:10:34.974Z,2.1
2019-01-09T14:13:34.743Z,2.1
2019-01-09T14:16:34.910Z,2.2
2019-01-09T14:19:34.804Z,2
2019-01-09T14:22:35.053Z,2
2019-01-09T14:25:34.834Z,2.1
2019-01-09T14:28:34.544Z,2.2
2019-01-09T14:31:34.932Z,2.7
2019-01-09T14:34:34.517Z,2.2
2019-01-09T14:37:35.048Z,2.1
2019-01-09T14:40:37.626Z,2
2019-01-09T14:43:35.399Z,6.2
2019-01-09T14:46:34.709Z,4.1
2019-01-09T14:49:35.178Z,3.2
2019-01-09T14:52:35.064Z,2.9
2019-01-09T14:55:35.003Z,2.9
2019-01-09T14:58:35.560Z,2.7
2019-01-09T15:01:34.921Z,2.8
2019-01-09T15:04:35.775Z,2.6
2019-01-09T15:07:34.737Z,2.3
2019-01-09T15:15:03.648Z,2.8
2019-01-09T15:21:36.888Z,2.9
2019-01-09T15:24:36.954Z,2.3
2019-01-09T15:27:37.843Z,2.5
2019-01-09T15:30:37.028Z,2.7
2019-01-09T15:33:37.315Z,3
2019-01-09T15:36:37.730Z,2.5
2019-01-09T15:44:57.477Z,2.8
2019-01-09T15:47:57.310Z,2.3
2019-01-09T15:50:57.382Z,2.8
2019-01-09T15:53:59.168Z,5.9
2019-01-09T15:56:57.814Z,6.5
2019-01-09T15:59:58.065Z,6
2019-01-09T16:02:57.283Z,5.5
2019-01-09T16:05:57.103Z,6.1
2019-01-09T16:08:57.721Z,6.2
2019-01-09T16:11:57.808Z,5.7
2019-01-09T16:14:57.571Z,5.1
2019-01-09T16:17:57.642Z,4.6
2019-01-09T16:21:00.755Z,4.1
2019-01-09T16:23:57.507Z,3.6
2019-01-09T16:26:57.409Z,3
2019-01-09T16:29:57.537Z,3.5
2019-01-09T16:32:57.368Z,3.3
2019-01-09T16:35:57.455Z,4.1
2019-01-09T16:38:58.056Z,4.1
2019-01-09T16:41:57.469Z,3.7
2019-01-09T16:47:20.624Z,2.6
2019-01-09T16:50:20.795Z,3.3
2019-01-09T16:53:20.623Z,3.3
2019-01-09T16:56:23.761Z,3.3
2019-01-09T16:59:20.592Z,3.3
2019-01-09T17:02:21.269Z,3.9
2019-01-09T17:05:24.646Z,4.2
2019-01-09T17:08:21.007Z,3.8
2019-01-09T17:11:20.935Z,3.1
2019-01-09T17:14:20.904Z,3.7
2019-01-09T17:17:20.951Z,3.7
2019-01-09T17:20:21.102Z,3.5
2019-01-09T17:23:20.701Z,3.7
2019-01-09T17:26:21.244Z,3.5
2019-01-09T17:29:21.568Z,3.2
2019-01-09T17:32:22.593Z,2.4
2019-01-09T17:35:21.399Z,2.3
2019-01-09T17:38:20.616Z,2.1
2019-01-09T17:41:20.866Z,2.3
2019-01-09T17:44:20.964Z,2.6
2019-01-09T17:47:20.962Z,3.1
2019-01-09T17:50:20.882Z,2.4
2019-01-09T17:53:21.880Z,2
2019-01-09T17:56:20.964Z,2.3
2019-01-09T17:59:27.529Z,2
2019-01-09T18:02:28.900Z,1.7
2019-01-09T18:05:21.714Z,1.9
2019-01-09T18:08:20.761Z,1.9
2019-01-09T18:11:21.177Z,1.7
2019-01-09T18:14:20.986Z,2.3
2019-01-09T18:17:24.150Z,2
2019-01-09T18:20:21.204Z,2.1
2019-01-09T18:23:20.863Z,2.2
2019-01-09T18:26:23.497Z,2
2019-01-09T18:29:21.214Z,1.9
2019-01-09T18:32:21.157Z,1.9
2019-01-09T18:35:25.539Z,1.6
2019-01-09T18:38:21.388Z,1.4
2019-01-09T18:41:20.718Z,1.8
2019-01-09T18:44:23.528Z,1.6
2019-01-09T18:47:20.682Z,1.6
2019-01-09T18:50:20.544Z,2.3
2019-01-09T18:53:22.697Z,5.1
2019-01-09T18:56:20.720Z,5.1
2019-01-09T18:59:20.927Z,3.8
2019-01-09T19:02:23.662Z,4.3
2019-01-09T19:05:20.823Z,6.9
2019-01-09T19:15:38.394Z,4.5
2019-01-09T19:18:38.344Z,6.1
2019-01-09T19:21:38.907Z,6.1
2019-01-09T19:24:40.107Z,7.5
2019-01-09T19:27:38.436Z,6.8
2019-01-09T19:30:38.969Z,6.2
2019-01-09T19:33:38.950Z,5.4
2019-01-09T19:36:38.244Z,5.3
2019-01-09T19:39:40.122Z,4.1
2019-01-09T19:42:39.506Z,4.1
2019-01-09T19:45:38.675Z,3.7
2019-01-09T19:48:38.685Z,3.2
2019-01-09T19:51:38.748Z,3.1
2019-01-09T19:54:38.878Z,3.1
2019-01-09T19:57:39.155Z,3.4
2019-01-09T20:00:38.315Z,4.2
2019-01-09T20:03:38.256Z,4
2019-01-09T20:06:38.266Z,3.4
2019-01-09T20:09:38.454Z,4.1
2019-01-09T20:12:39.069Z,3.2
2019-01-09T20:15:38.982Z,4
2019-01-09T20:18:39.032Z,3.8
2019-01-09T20:21:40.563Z,3.8
2019-01-09T20:24:39.051Z,3.1
2019-01-09T20:27:38.512Z,4
2019-01-09T20:30:38.458Z,3.4
2019-01-09T20:33:38.801Z,2.8
2019-01-09T20:36:39.098Z,2.9
2019-01-09T20:39:38.439Z,2.9
2019-01-09T20:42:38.649Z,2.9
2019-01-09T20:45:39.339Z,2.4
2019-01-09T20:48:39.327Z,2.3
2019-01-09T20:51:38.825Z,2.3
2019-01-09T20:54:39.802Z,3.2
2019-01-09T20:57:38.661Z,3.9
2019-01-09T21:00:40.610Z,3.3
2019-01-09T21:03:38.710Z,3.1
2019-01-09T21:06:38.917Z,2.7
2019-01-09T21:09:39.185Z,2.8
2019-01-09T21:12:38.745Z,2.5
2019-01-09T21:15:40.177Z,2.7
2019-01-09T21:18:38.875Z,2.7
2019-01-09T21:21:38.562Z,2.3
2019-01-09T21:24:38.720Z,2.7
2019-01-09T21:27:42.674Z,2.2
2019-01-09T21:30:38.449Z,1.9
2019-01-09T21:33:38.311Z,2.1
2019-01-09T21:36:38.215Z,2.2
2019-01-09T21:39:38.668Z,2.3
2019-01-09T21:42:38.412Z,2.1
2019-01-09T21:45:38.358Z,2.4
2019-01-09T21:48:38.263Z,3
2019-01-09T21:51:38.146Z,3.2
2019-01-09T21:54:39.862Z,2.5
2019-01-09T21:57:40.916Z,2.6
2019-01-09T22:00:38.502Z,2.4
2019-01-09T22:03:38.734Z,2.1
2019-01-09T22:06:38.306Z,2
2019-01-09T22:09:38.865Z,2.2
2019-01-09T22:12:38.322Z,1.9
2019-01-09T22:15:38.316Z,1.7
2019-01-09T22:18:38.436Z,1.7
2019-01-09T22:21:38.388Z,2.2
2019-01-09T22:24:38.878Z,1.9
2019-01-09T22:27:38.465Z,1.6
2019-01-09T22:30:38.264Z,1.9
2019-01-09T22:33:38.860Z,2.2
2019-01-09T22:36:38.377Z,2
2019-01-09T22:39:38.446Z,1.9
2019-01-09T22:42:38.426Z,2
2019-01-09T22:45:38.162Z,1.7
2019-01-09T22:48:38.205Z,1.8
2019-01-09T22:51:38.322Z,1.8
2019-01-09T22:54:39.372Z,1.9
2019-01-09T22:57:38.398Z,1.9
2019-01-09T23:00:38.125Z,1.8
2019-01-09T23:03:38.082Z,1.6
2019-01-09T23:06:38.344Z,1.8
2019-01-09T23:09:38.567Z,1.9
2019-01-09T23:12:38.202Z,1.7
2019-01-09T23:15:38.498Z,1.9
2019-01-09T23:18:38.315Z,1.6
2019-01-09T23:21:38.779Z,1.6
2019-01-09T23:24:38.367Z,1.7
2019-01-09T23:27:38.164Z,1.6
2019-01-09T23:30:38.419Z,1.6
2019-01-09T23:33:38.857Z,1.5
2019-01-09T23:36:38.119Z,1.6
2019-01-09T23:39:38.267Z,1.5
2019-01-09T23:42:38.356Z,1.5
2019-01-09T23:45:38.555Z,1.4
2019-01-09T23:48:38.859Z,1.4
2019-01-09T23:51:38.258Z,1.5
2019-01-09T23:54:38.235Z,1.6
2019-01-09T23:57:38.324Z,1.6
